Terminal Aerodrome Forecast
Issued by NWS Atlanta, GA

Home | Current Version | Previous Version | Text Only | Print | Product List | Glossary On
Versions: 1 2 3 4 5 6 7 8 9 10 11 12 13 14 15 16 17 18 19 20 21 22 23 24 25 26 27 28 29 30 31 32 33 34 35 36 37 38 39
000
FTUS42 KFFC 230755 AAA
TAFATL
TAF AMD
KATL 230755Z 2308/2412 12010G17KT 2SM -SHRA BR OVC005
     FM231000 14009KT 5SM SHRA OVC010
      TEMPO 2312/2315 VRB10G20KT 3SM TSRA BKN010CB
     FM231600 21012G22KT 3SM SHRA OVC010
     FM231900 25010KT P6SM VCSH SCT020
     FM232200 29008KT P6SM SCT250
     FM240500 29004KT P6SM SKC=

USA.gov is the U.S. government's official web portal to all federal, state and local government web resources and services.